Time;durP1;ratioP1;P1;durP2;ratioP2;P2;SDS_P1;SDS_P2;PMS_P1;PMS_P2;Temp;Humidity;BMP_temperature;BMP_pressure;BME280_temperature;BME280_humidity;BME280_pressure;Samples;Min_cycle;Max_cycle;Signal;HPM_P1;HPM_P2
2023/10/25 00:00:12;;;;;;;19.30;13.30;;;;;;;12.05;95.35;98693.32;131118;1254;108603;-79
2023/10/25 00:03:38;;;;;;;17.50;13.30;;;;;;;12.05;95.60;98688.49;131137;1254;110123;-78
2023/10/25 00:06:43;;;;;;;17.80;13.90;;;;;;;12.06;95.60;98688.67;131155;1254;108536;-80
2023/10/25 00:09:49;;;;;;;20.60;14.90;;;;;;;12.07;95.57;98674.48;131147;1250;106967;-79
2023/10/25 00:12:55;;;;;;;21.60;15.30;;;;;;;12.05;95.35;98663.58;131122;1250;107853;-78
2023/10/25 00:16:01;;;;;;;22.50;15.00;;;;;;;12.02;95.80;98657.15;131063;1254;106886;-78
2023/10/25 00:19:06;;;;;;;18.10;13.60;;;;;;;12.00;95.69;98657.27;131173;1250;107620;-78
2023/10/25 00:22:13;;;;;;;20.50;13.30;;;;;;;11.97;95.75;98653.31;131114;1251;107704;-78
2023/10/25 00:25:19;;;;;;;21.60;14.60;;;;;;;11.99;95.91;98649.95;131055;1253;108603;-78
2023/10/25 00:28:25;;;;;;;19.00;14.20;;;;;;;12.01;95.75;98645.06;131076;1255;107647;-78
2023/10/25 00:31:30;;;;;;;21.00;15.30;;;;;;;12.02;95.88;98643.38;131125;1250;107820;-78
2023/10/25 00:34:36;;;;;;;19.40;14.80;;;;;;;12.02;95.86;98634.54;131096;1254;106367;-78
2023/10/25 00:37:41;;;;;;;22.00;15.20;;;;;;;11.99;95.96;98627.09;131087;1250;108791;-78
2023/10/25 00:40:47;;;;;;;20.80;15.10;;;;;;;11.97;96.04;98620.37;131025;1254;108404;-78
2023/10/25 00:43:52;;;;;;;18.00;13.20;;;;;;;11.95;96.07;98615.11;130990;1256;108756;-78
2023/10/25 00:46:58;;;;;;;19.40;14.20;;;;;;;11.97;96.16;98610.95;130808;1256;243087;-78
2023/10/25 00:50:04;;;;;;;19.70;14.70;;;;;;;11.99;96.23;98607.67;131007;1257;109012;-79
2023/10/25 00:53:10;;;;;;;21.00;15.20;;;;;;;12.00;96.16;98598.29;131101;1250;106885;-77
2023/10/25 00:56:17;;;;;;;21.00;15.60;;;;;;;12.01;96.31;98590.82;130981;1256;108680;-78
2023/10/25 00:59:24;;;;;;;21.10;14.60;;;;;;;12.01;96.32;98576.25;131132;1255;106833;-78
2023/10/25 01:02:29;;;;;;;19.00;14.30;;;;;;;12.00;96.22;98573.88;131154;1250;108513;-78
2023/10/25 01:05:35;;;;;;;19.40;14.30;;;;;;;11.99;96.33;98566.30;131055;1250;107806;-78
2023/10/25 01:08:41;;;;;;;19.80;15.80;;;;;;;12.01;96.43;98565.33;131100;1254;108413;-78
2023/10/25 01:11:47;;;;;;;21.30;15.30;;;;;;;12.01;96.46;98557.92;131052;1256;108222;-77
2023/10/25 01:14:53;;;;;;;20.20;15.30;;;;;;;11.97;96.40;98548.41;131111;1254;108715;-78
2023/10/25 01:17:58;;;;;;;20.70;14.50;;;;;;;11.95;96.69;98542.95;131010;1254;107649;-78
2023/10/25 01:21:05;;;;;;;20.20;15.10;;;;;;;11.97;96.66;98541.79;130989;1256;109489;-78
2023/10/25 01:24:11;;;;;;;22.30;16.00;;;;;;;11.98;96.58;98540.64;131014;1256;107685;-78
2023/10/25 01:27:17;;;;;;;21.00;14.90;;;;;;;12.00;96.74;98532.63;131075;1255;106256;-78
2023/10/25 01:30:22;;;;;;;21.60;15.90;;;;;;;12.02;96.73;98529.37;131142;1250;107534;-79
2023/10/25 01:33:28;;;;;;;21.20;15.10;;;;;;;12.02;96.66;98530.69;131049;1250;106677;-78
2023/10/25 01:36:33;;;;;;;20.40;15.60;;;;;;;12.04;96.66;98523.98;131086;1253;108660;-78
2023/10/25 01:39:39;;;;;;;21.10;15.80;;;;;;;12.06;96.77;98521.88;131079;1254;108682;-78
2023/10/25 01:42:45;;;;;;;20.90;16.80;;;;;;;12.07;96.68;98515.89;131158;1254;107036;-79
2023/10/25 01:45:51;;;;;;;21.60;15.40;;;;;;;12.07;96.79;98513.55;131194;1251;108538;-78
2023/10/25 01:48:59;;;;;;;20.40;14.80;;;;;;;12.08;96.72;98506.17;131077;1256;107654;-78
2023/10/25 01:52:05;;;;;;;21.20;15.70;;;;;;;12.08;96.80;98498.66;131074;1251;108583;-78
2023/10/25 01:55:11;;;;;;;20.10;15.10;;;;;;;12.09;96.96;98499.07;131149;1256;107009;-78
2023/10/25 01:58:17;;;;;;;21.30;15.50;;;;;;;12.12;96.90;98500.42;130928;1256;108483;-78
2023/10/25 02:01:22;;;;;;;19.70;16.00;;;;;;;12.14;96.94;98492.15;130776;1256;106512;-79
2023/10/25 02:04:28;;;;;;;23.90;15.20;;;;;;;12.15;96.90;98490.55;130837;1253;107512;-79
2023/10/25 02:07:34;;;;;;;18.70;15.10;;;;;;;12.14;96.88;98486.52;131339;1255;108017;-80
2023/10/25 02:10:41;;;;;;;21.50;15.20;;;;;;;12.15;96.95;98484.99;131025;1254;108031;-80
2023/10/25 02:13:47;;;;;;;20.50;16.10;;;;;;;12.16;96.96;98480.64;131272;1254;107901;-80
2023/10/25 02:16:52;;;;;;;20.30;15.60;;;;;;;12.17;97.08;98472.94;131484;1253;107799;-81
2023/10/25 02:19:58;;;;;;;20.60;16.10;;;;;;;12.21;97.12;98471.98;131092;1256;107711;-79
2023/10/25 02:23:04;;;;;;;20.40;15.80;;;;;;;12.20;97.04;98471.16;131000;1256;109604;-79
2023/10/25 02:26:09;;;;;;;20.50;15.30;;;;;;;12.19;97.13;98466.31;131021;1256;106794;-77
2023/10/25 02:29:15;;;;;;;21.00;15.20;;;;;;;12.20;97.14;98458.38;131104;1256;108716;-77
2023/10/25 02:32:20;;;;;;;18.40;15.90;;;;;;;12.22;97.04;98449.61;131426;1253;105798;-80
2023/10/25 02:35:26;;;;;;;22.50;16.20;;;;;;;12.23;97.14;98452.24;131158;1255;108553;-79
2023/10/25 02:38:31;;;;;;;22.00;16.50;;;;;;;12.22;97.09;98448.66;131144;1256;108530;-79
2023/10/25 02:41:37;;;;;;;22.20;16.30;;;;;;;12.21;97.25;98438.99;131907;1255;107379;-77
2023/10/25 02:44:43;;;;;;;22.50;15.80;;;;;;;12.22;97.33;98438.01;131130;1253;108665;-79
2023/10/25 02:47:49;;;;;;;22.40;15.70;;;;;;;12.23;97.25;98431.42;131316;1253;106962;-79
2023/10/25 02:50:54;;;;;;;22.30;17.20;;;;;;;12.24;97.38;98434.27;131223;1256;107484;-77
2023/10/25 02:54:00;;;;;;;18.60;15.10;;;;;;;12.24;97.28;98423.73;131076;1256;108509;-77
2023/10/25 02:57:06;;;;;;;20.10;15.80;;;;;;;12.26;97.30;98424.95;130973;1253;108598;-76
2023/10/25 03:00:13;;;;;;;22.30;15.90;;;;;;;12.26;97.43;98424.55;131007;1253;107325;-76
2023/10/25 03:03:19;;;;;;;21.80;16.40;;;;;;;12.28;97.49;98419.65;131021;1256;108521;-77
2023/10/25 03:06:24;;;;;;;22.40;17.30;;;;;;;12.30;97.30;98420.06;130921;1256;107752;-77
2023/10/25 03:09:30;;;;;;;22.10;17.10;;;;;;;12.32;97.57;98414.55;131096;1257;108750;-77
2023/10/25 03:12:35;;;;;;;23.20;16.70;;;;;;;12.31;97.41;98415.52;131136;1255;108788;-77
2023/10/25 03:15:41;;;;;;;21.70;16.10;;;;;;;12.31;97.52;98414.58;131049;1257;106932;-77
2023/10/25 03:18:46;;;;;;;19.90;16.00;;;;;;;12.30;97.51;98408.71;131100;1256;106703;-77
2023/10/25 03:21:52;;;;;;;19.10;16.00;;;;;;;12.30;97.51;98402.33;131111;1256;107186;-77
2023/10/25 03:24:59;;;;;;;22.40;16.20;;;;;;;12.31;97.74;98397.56;131091;1256;107312;-77
2023/10/25 03:28:05;;;;;;;22.40;16.70;;;;;;;12.31;97.51;98393.28;131053;1256;108705;-76
2023/10/25 03:31:12;;;;;;;22.50;16.70;;;;;;;12.29;97.65;98389.90;131056;1256;107856;-78
2023/10/25 03:34:19;;;;;;;20.40;16.00;;;;;;;12.31;97.69;98388.13;131011;1251;106772;-79
2023/10/25 03:37:24;;;;;;;20.90;16.00;;;;;;;12.33;97.81;98387.92;131088;1256;108105;-78
2023/10/25 03:40:30;;;;;;;22.50;17.40;;;;;;;12.35;97.82;98390.29;130967;1256;107766;-78
2023/10/25 03:43:36;;;;;;;21.10;17.20;;;;;;;12.37;97.73;98385.47;131158;1256;108566;-78
2023/10/25 03:46:42;;;;;;;21.10;16.30;;;;;;;12.35;97.80;98384.41;130955;1256;107140;-79
2023/10/25 03:49:52;;;;;;;21.30;16.50;;;;;;;12.36;97.90;98379.55;131106;1250;108020;-79
2023/10/25 03:52:58;;;;;;;20.70;16.30;;;;;;;12.36;98.03;98379.88;131080;1250;107097;-78
2023/10/25 03:56:04;;;;;;;20.10;16.70;;;;;;;12.35;97.95;98375.15;131162;1256;107882;-78
2023/10/25 03:59:11;;;;;;;21.30;17.00;;;;;;;12.34;98.18;98369.60;131115;1257;107006;-78
2023/10/25 04:02:17;;;;;;;20.20;16.30;;;;;;;12.34;98.15;98363.43;130968;1251;107739;-78
2023/10/25 04:05:22;;;;;;;19.80;15.80;;;;;;;12.32;98.04;98357.10;131140;1250;107351;-78
2023/10/25 04:08:28;;;;;;;22.00;17.30;;;;;;;12.31;98.25;98350.48;131159;1251;107751;-78
2023/10/25 04:11:34;;;;;;;23.10;18.20;;;;;;;12.33;98.36;98351.21;131131;1250;109512;-78
2023/10/25 04:14:42;;;;;;;20.20;16.60;;;;;;;12.33;98.34;98345.12;131078;1254;108711;-78
2023/10/25 04:17:48;;;;;;;21.80;16.60;;;;;;;12.31;98.37;98339.90;131049;1256;108635;-78
2023/10/25 04:20:54;;;;;;;21.60;15.90;;;;;;;12.31;98.49;98337.19;131088;1251;108724;-79
2023/10/25 04:24:01;;;;;;;21.40;16.20;;;;;;;12.32;98.39;98332.46;131202;1256;109353;-76
2023/10/25 04:27:07;;;;;;;20.20;15.80;;;;;;;12.34;98.56;98328.09;131103;1253;108823;-78
2023/10/25 04:30:14;;;;;;;21.90;15.70;;;;;;;12.36;98.58;98325.40;131216;1256;108534;-78
2023/10/25 04:33:19;;;;;;;19.00;15.40;;;;;;;12.37;98.50;98326.11;131183;1250;108669;-78
2023/10/25 04:36:25;;;;;;;19.30;15.30;;;;;;;12.37;98.61;98322.16;131079;1254;107673;-78
2023/10/25 04:39:31;;;;;;;17.10;14.50;;;;;;;12.37;98.60;98321.38;131091;1251;108406;-78
2023/10/25 04:42:36;;;;;;;20.20;16.80;;;;;;;12.39;98.62;98317.20;131065;1252;108475;-79
2023/10/25 04:45:42;;;;;;;18.50;15.70;;;;;;;12.39;98.52;98310.98;131093;1256;108657;-76
2023/10/25 04:48:47;;;;;;;19.90;15.20;;;;;;;12.38;98.69;98310.34;131141;1251;107738;-76
2023/10/25 04:51:53;;;;;;;17.80;14.30;;;;;;;12.38;98.75;98308.60;131362;1251;108787;-77
2023/10/25 04:54:58;;;;;;;16.30;14.10;;;;;;;12.39;98.77;98303.84;131189;1251;106420;-78
2023/10/25 04:58:05;;;;;;;19.70;15.40;;;;;;;12.40;98.78;98304.27;134266;1253;108391;-76
2023/10/25 05:01:14;;;;;;;18.00;15.40;;;;;;;12.42;98.74;98300.94;131570;1255;106388;-76
2023/10/25 05:04:20;;;;;;;19.10;14.70;;;;;;;12.42;98.77;98297.20;131172;1250;106396;-76
2023/10/25 05:07:27;;;;;;;17.10;13.60;;;;;;;12.42;98.73;98295.09;131450;1253;107123;-78
2023/10/25 05:10:34;;;;;;;15.00;12.60;;;;;;;12.44;98.79;98290.55;131123;1251;108470;-78
2023/10/25 05:13:41;;;;;;;17.50;13.50;;;;;;;12.45;98.86;98292.83;131065;1251;107125;-76
2023/10/25 05:16:47;;;;;;;15.60;13.20;;;;;;;12.46;98.86;98289.93;130946;1256;107529;-78
2023/10/25 05:19:54;;;;;;;16.10;12.50;;;;;;;12.45;98.86;98293.73;131001;1257;108635;-76
2023/10/25 05:23:03;;;;;;;13.40;11.00;;;;;;;12.43;98.79;98288.13;130871;1258;108495;-77
2023/10/25 05:26:10;;;;;;;15.00;12.60;;;;;;;12.43;98.87;98289.03;131151;1264;106730;-77
2023/10/25 05:29:16;;;;;;;14.90;12.20;;;;;;;12.45;99.01;98293.71;131003;1255;106353;-76
2023/10/25 05:32:24;;;;;;;14.60;12.30;;;;;;;12.48;98.95;98295.31;131000;1251;108668;-76
2023/10/25 05:35:31;;;;;;;14.50;11.90;;;;;;;12.46;98.88;98295.36;131010;1257;107735;-76
2023/10/25 05:38:38;;;;;;;13.70;11.30;;;;;;;12.45;98.87;98297.02;131072;1256;107667;-76
2023/10/25 05:41:46;;;;;;;14.60;12.00;;;;;;;12.44;99.11;98301.02;130941;1254;106409;-76
2023/10/25 05:44:53;;;;;;;15.00;13.20;;;;;;;12.45;99.11;98300.56;131041;1256;107163;-77
2023/10/25 05:48:00;;;;;;;16.00;13.30;;;;;;;12.45;99.11;98301.17;131043;1256;108529;-76
2023/10/25 05:51:07;;;;;;;16.20;12.90;;;;;;;12.46;99.18;98303.27;130997;1256;107403;-76
2023/10/25 05:54:14;;;;;;;16.70;12.10;;;;;;;12.45;99.29;98300.32;131017;1256;107911;-76
2023/10/25 05:57:21;;;;;;;20.60;14.20;;;;;;;12.47;99.23;98302.44;130986;1256;108711;-76
2023/10/25 06:00:27;;;;;;;25.80;16.20;;;;;;;12.48;99.28;98298.48;130982;1250;108661;-76
2023/10/25 06:03:35;;;;;;;20.90;14.90;;;;;;;12.49;99.34;98304.45;131011;1260;108463;-77
2023/10/25 06:06:44;;;;;;;17.80;13.40;;;;;;;12.46;99.34;98299.52;130973;1255;107656;-77
2023/10/25 06:09:50;;;;;;;15.90;11.70;;;;;;;12.41;99.49;98302.91;131005;1256;106991;-76
2023/10/25 06:12:57;;;;;;;14.80;11.80;;;;;;;12.41;99.48;98298.38;131055;1256;106893;-77
2023/10/25 06:16:02;;;;;;;14.30;12.00;;;;;;;12.45;99.50;98301.41;131020;1256;108355;-78
2023/10/25 06:19:08;;;;;;;15.70;12.40;;;;;;;12.46;99.46;98298.90;131040;1256;107690;-77
2023/10/25 06:22:13;;;;;;;14.90;12.00;;;;;;;12.47;99.54;98298.70;131018;1254;108297;-77
2023/10/25 06:25:19;;;;;;;15.00;12.00;;;;;;;12.49;99.53;98301.10;131035;1253;109314;-77
2023/10/25 06:28:25;;;;;;;13.80;11.00;;;;;;;12.50;99.57;98299.41;130997;1253;108704;-77
2023/10/25 06:31:30;;;;;;;14.70;12.00;;;;;;;12.52;99.49;98297.43;130990;1257;106998;-77
2023/10/25 06:34:36;;;;;;;16.90;12.50;;;;;;;12.52;99.39;98302.91;130964;1257;106435;-78
2023/10/25 06:37:43;;;;;;;15.10;11.70;;;;;;;12.52;99.49;98304.06;130981;1256;107170;-78
2023/10/25 06:40:50;;;;;;;14.30;11.10;;;;;;;12.50;99.62;98300.57;130946;1256;108413;-79
2023/10/25 06:43:56;;;;;;;12.20;10.90;;;;;;;12.51;99.66;98301.26;131028;1261;108376;-77
2023/10/25 06:47:04;;;;;;;13.40;10.80;;;;;;;12.53;99.65;98301.09;131029;1256;108784;-77
2023/10/25 06:50:13;;;;;;;13.00;10.70;;;;;;;12.56;99.70;98307.01;130973;1250;107656;-77
2023/10/25 06:53:21;;;;;;;12.70;10.70;;;;;;;12.59;99.76;98305.34;130966;1255;108594;-77
2023/10/25 06:56:29;;;;;;;12.00;9.50;;;;;;;12.59;99.60;98307.88;130988;1260;109367;-77
2023/10/25 06:59:36;;;;;;;10.60;8.70;;;;;;;12.60;99.76;98314.92;130998;1256;108704;-77
2023/10/25 07:02:50;;;;;;;11.40;9.10;;;;;;;12.58;99.77;98317.92;131058;1264;106773;-77
2023/10/25 07:06:00;;;;;;;11.20;9.20;;;;;;;12.58;99.88;98318.35;131018;1264;107600;-77
2023/10/25 07:09:07;;;;;;;10.80;9.30;;;;;;;12.57;99.95;98318.27;131073;1254;107829;-77
2023/10/25 07:12:13;;;;;;;11.00;9.00;;;;;;;12.52;100.00;98318.66;130991;1264;106594;-77
2023/10/25 07:15:19;;;;;;;11.80;9.80;;;;;;;12.51;100.00;98318.27;131038;1264;106563;-77
2023/10/25 07:18:25;;;;;;;10.50;9.40;;;;;;;12.54;100.00;98315.70;131028;1256;108567;-77
2023/10/25 07:21:30;;;;;;;10.30;9.20;;;;;;;12.58;99.97;98319.38;131127;1254;107724;-77
2023/10/25 07:24:36;;;;;;;51.70;41.60;;;;;;;12.58;100.00;98315.41;131065;1258;107672;-77
2023/10/25 07:27:41;;;;;;;15.10;13.10;;;;;;;12.60;100.00;98314.84;130945;1250;108591;-78
2023/10/25 07:30:47;;;;;;;20.80;17.60;;;;;;;12.65;100.00;98320.58;131025;1263;108512;-77
2023/10/25 07:33:52;;;;;;;9.50;8.20;;;;;;;12.67;100.00;98316.91;131157;1256;106184;-77
2023/10/25 07:37:00;;;;;;;11.50;9.70;;;;;;;12.69;100.00;98316.80;130955;1263;107969;-78
2023/10/25 07:40:07;;;;;;;9.30;8.30;;;;;;;12.66;100.00;98319.05;131040;1264;108157;-77
2023/10/25 07:43:13;;;;;;;8.70;7.80;;;;;;;12.69;100.00;98320.07;131038;1264;107556;-78
2023/10/25 07:46:18;;;;;;;8.50;7.50;;;;;;;12.64;100.00;98324.16;131031;1256;107223;-78
2023/10/25 07:49:24;;;;;;;9.90;8.40;;;;;;;12.57;100.00;98325.80;130971;1254;106615;-77
2023/10/25 07:52:29;;;;;;;9.10;8.00;;;;;;;12.51;100.00;98327.93;130983;1258;107795;-77
2023/10/25 07:55:35;;;;;;;11.20;10.10;;;;;;;12.45;100.00;98325.89;130958;1256;107115;-78
2023/10/25 07:58:41;;;;;;;10.20;9.20;;;;;;;12.43;100.00;98329.12;131053;1251;108706;-77
2023/10/25 08:01:47;;;;;;;12.20;11.00;;;;;;;12.48;100.00;98327.21;130968;1264;108658;-78
2023/10/25 08:04:52;;;;;;;10.10;8.30;;;;;;;12.45;100.00;98331.61;130943;1257;107679;-78
2023/10/25 08:07:58;;;;;;;8.90;7.60;;;;;;;12.43;100.00;98333.77;131061;1256;106281;-77
2023/10/25 08:11:06;;;;;;;8.70;7.80;;;;;;;12.36;100.00;98336.61;130911;1264;108223;-77
2023/10/25 08:14:12;;;;;;;8.30;7.40;;;;;;;12.30;100.00;98341.63;130990;1260;106261;-78
2023/10/25 08:17:18;;;;;;;10.00;8.90;;;;;;;12.27;100.00;98351.77;131063;1251;107508;-77
2023/10/25 08:20:25;;;;;;;9.30;8.30;;;;;;;12.23;100.00;98349.55;130946;1256;107896;-77
2023/10/25 08:23:31;;;;;;;11.30;9.40;;;;;;;12.16;100.00;98354.89;130995;1256;107874;-77
2023/10/25 08:26:40;;;;;;;9.00;7.90;;;;;;;12.08;100.00;98353.44;131023;1256;107749;-78
2023/10/25 08:29:45;;;;;;;9.70;8.70;;;;;;;12.05;100.00;98354.02;130999;1251;109830;-77
2023/10/25 08:32:51;;;;;;;8.70;7.80;;;;;;;12.02;100.00;98354.23;131034;1256;109310;-77
2023/10/25 08:36:04;;;;;;;10.00;8.30;;;;;;;11.93;100.00;98354.89;131043;1254;108377;-78
2023/10/25 08:39:10;;;;;;;9.10;8.10;;;;;;;11.89;100.00;98356.11;131114;1251;107734;-78
2023/10/25 08:42:15;;;;;;;8.80;7.80;;;;;;;11.93;100.00;98358.64;131099;1253;108353;-78
2023/10/25 08:45:21;;;;;;;8.60;7.50;;;;;;;11.95;100.00;98361.77;131030;1256;107483;-79
2023/10/25 08:48:28;;;;;;;8.10;6.90;;;;;;;11.94;100.00;98363.37;131008;1257;106677;-78
2023/10/25 08:51:35;;;;;;;6.50;5.90;;;;;;;11.91;100.00;98365.01;131040;1255;106756;-78
2023/10/25 08:54:41;;;;;;;7.10;5.60;;;;;;;11.87;100.00;98365.27;131000;1257;108760;-78
2023/10/25 08:57:53;;;;;;;5.90;5.20;;;;;;;11.86;100.00;98367.75;131094;1264;105847;-78
2023/10/25 09:00:59;;;;;;;5.70;5.00;;;;;;;11.87;100.00;98370.41;131078;1261;108358;-78
2023/10/25 09:04:09;;;;;;;6.50;5.50;;;;;;;11.84;100.00;98375.52;131009;1255;107017;-78
2023/10/25 09:11:01;;;;;;;7.60;6.40;;;;;;;11.77;100.00;98374.25;126721;1294;635761;-81
2023/10/25 09:14:09;;;;;;;5.30;4.70;;;;;;;11.74;100.00;98375.00;129969;1264;107684;-80
2023/10/25 09:17:15;;;;;;;5.20;4.60;;;;;;;11.66;100.00;98377.71;130081;1260;107539;-79
2023/10/25 09:20:28;;;;;;;4.80;4.30;;;;;;;11.59;100.00;98378.86;130314;1263;108697;-79
2023/10/25 09:23:34;;;;;;;5.60;5.10;;;;;;;11.58;100.00;98378.65;130050;1264;280953;-79
2023/10/25 09:26:40;;;;;;;4.30;3.80;;;;;;;11.62;100.00;98382.92;130482;1261;105945;-79
2023/10/25 09:29:46;;;;;;;4.30;3.70;;;;;;;11.63;100.00;98383.52;130451;1264;106641;-79
2023/10/25 09:32:54;;;;;;;3.60;3.10;;;;;;;11.64;100.00;98384.70;130458;1262;107628;-79
2023/10/25 09:35:59;;;;;;;3.90;2.70;;;;;;;11.67;100.00;98388.68;130437;1269;107805;-78
2023/10/25 09:39:05;;;;;;;3.40;2.70;;;;;;;11.68;100.00;98394.90;130297;1257;107365;-78
2023/10/25 09:42:12;;;;;;;4.30;3.30;;;;;;;11.70;100.00;98399.58;130418;1262;106212;-78
2023/10/25 09:45:24;;;;;;;3.90;3.50;;;;;;;11.68;100.00;98399.01;130436;1263;106102;-78
2023/10/25 09:48:32;;;;;;;6.60;5.30;;;;;;;11.70;100.00;98393.04;130460;1257;107712;-78
2023/10/25 09:52:05;;;;;;;4.30;3.40;;;;;;;11.77;100.00;98394.72;130439;1260;106943;-78
2023/10/25 09:55:21;;;;;;;3.30;2.70;;;;;;;11.84;100.00;98404.17;130449;1262;107687;-78
2023/10/25 09:58:28;;;;;;;5.80;3.30;;;;;;;11.87;100.00;98404.21;130387;1257;106571;-78
2023/10/25 10:01:34;;;;;;;5.20;3.10;;;;;;;11.92;100.00;98407.15;130405;1262;107842;-78
2023/10/25 10:04:50;;;;;;;4.10;3.00;;;;;;;11.96;100.00;98408.72;130419;1259;108236;-78
2023/10/25 10:08:04;;;;;;;5.40;2.90;;;;;;;11.93;100.00;98412.09;130482;1262;107734;-79
2023/10/25 10:11:16;;;;;;;5.20;2.90;;;;;;;11.91;100.00;98412.58;130356;1258;108627;-78
2023/10/25 10:14:36;;;;;;;;;;;;;;;11.86;100.00;98409.31;130327;1262;107732;-79
2023/10/25 10:17:45;;;;;;;3.60;2.90;;;;;;;11.76;100.00;98405.70;130320;1259;106749;-78
2023/10/25 10:21:00;;;;;;;3.80;3.30;;;;;;;11.71;100.00;98408.38;130369;1258;107597;-79
2023/10/25 10:24:27;;;;;;;4.80;3.90;;;;;;;11.66;100.00;98404.63;130366;1261;107666;-78
2023/10/25 10:31:07;;;;;;;4.10;2.90;;;;;;;11.67;100.00;98408.05;127038;1295;635709;-79
2023/10/25 10:34:12;;;;;;;4.40;3.00;;;;;;;11.67;100.00;98408.00;130147;1266;106556;-79
2023/10/25 10:37:20;;;;;;;3.20;2.70;;;;;;;11.71;100.00;98403.93;130082;1261;108590;-78
2023/10/25 10:40:26;;;;;;;3.90;2.70;;;;;;;11.66;100.00;98398.05;130150;1266;107030;-78
2023/10/25 10:43:32;;;;;;;4.40;2.60;;;;;;;11.63;100.00;98398.47;129969;1267;228763;-78
2023/10/25 10:46:44;;;;;;;3.60;2.80;;;;;;;11.62;100.00;98403.08;130429;1262;106299;-78
2023/10/25 10:49:56;;;;;;;5.10;2.80;;;;;;;11.56;100.00;98408.41;130426;1258;108324;-80
2023/10/25 10:53:02;;;;;;;4.60;2.90;;;;;;;11.56;100.00;98412.15;130523;1257;108706;-78
2023/10/25 10:56:08;;;;;;;3.30;2.90;;;;;;;11.54;100.00;98415.85;130434;1263;106834;-78
2023/10/25 10:59:14;;;;;;;3.50;2.70;;;;;;;11.54;100.00;98416.14;130479;1263;106904;-78
2023/10/25 11:02:20;;;;;;;3.00;2.60;;;;;;;11.55;100.00;98420.58;130392;1261;106906;-78
2023/10/25 11:05:25;;;;;;;2.90;2.50;;;;;;;11.48;100.00;98421.97;130419;1263;106261;-78
2023/10/25 11:08:32;;;;;;;3.10;2.80;;;;;;;11.45;100.00;98430.47;130359;1263;107340;-78
2023/10/25 11:11:38;;;;;;;3.70;3.00;;;;;;;11.41;100.00;98434.53;131485;1250;107774;-78
2023/10/25 11:14:44;;;;;;;4.90;3.20;;;;;;;11.38;100.00;98431.50;131470;1253;106929;-78
2023/10/25 11:17:50;;;;;;;4.90;3.60;;;;;;;11.34;100.00;98435.00;131455;1247;107666;-77
2023/10/25 11:20:56;;;;;;;5.40;4.80;;;;;;;11.34;100.00;98440.47;131432;1257;107531;-78
2023/10/25 11:24:06;;;;;;;6.20;5.60;;;;;;;11.34;100.00;98443.34;131474;1250;106307;-77
2023/10/25 11:27:12;;;;;;;9.90;8.90;;;;;;;11.33;100.00;98452.05;131447;1248;106556;-78
2023/10/25 11:30:20;;;;;;;9.00;8.10;;;;;;;11.26;100.00;98454.45;131406;1248;107085;-78
2023/10/25 11:33:26;;;;;;;9.50;8.50;;;;;;;11.23;100.00;98459.43;131432;1250;106638;-77
2023/10/25 11:36:32;;;;;;;12.30;7.70;;;;;;;11.20;100.00;98463.60;131450;1250;108564;-77
2023/10/25 11:39:59;;;;;;;8.50;7.70;;;;;;;11.16;100.00;98464.05;131454;1254;108342;-78
2023/10/25 11:43:06;;;;;;;23.80;16.00;;;;;;;11.21;100.00;98465.95;131409;1250;107683;-78
2023/10/25 11:46:14;;;;;;;15.80;14.10;;;;;;;11.25;100.00;98463.05;131425;1250;105792;-78
2023/10/25 11:49:21;;;;;;;20.50;14.10;;;;;;;11.24;100.00;98466.79;131348;1260;107843;-78
2023/10/25 11:52:27;;;;;;;13.20;10.50;;;;;;;11.18;100.00;98469.48;131410;1250;108673;-78
2023/10/25 11:55:33;;;;;;;28.80;19.70;;;;;;;11.14;100.00;98467.38;131494;1253;106623;-78
2023/10/25 11:58:39;;;;;;;29.80;25.80;;;;;;;11.16;100.00;98472.92;131401;1250;106712;-78
2023/10/25 12:01:44;;;;;;;39.30;23.10;;;;;;;11.24;100.00;98472.50;131383;1248;107164;-78
2023/10/25 12:04:50;;;;;;;62.40;36.10;;;;;;;11.23;100.00;98479.60;131507;1248;108718;-78
2023/10/25 12:07:56;;;;;;;11.50;10.30;;;;;;;11.24;100.00;98484.82;131407;1250;107089;-79
2023/10/25 12:11:02;;;;;;;9.40;8.50;;;;;;;11.15;100.00;98485.60;131467;1260;107718;-77
2023/10/25 12:14:07;;;;;;;538.20;199.60;;;;;;;11.13;100.00;98487.48;131372;1253;108597;-77
2023/10/25 12:17:13;;;;;;;413.00;142.60;;;;;;;11.17;100.00;98482.09;131385;1248;107762;-78
2023/10/25 12:20:19;;;;;;;32.50;15.00;;;;;;;11.21;100.00;98489.08;131381;1247;107079;-78
2023/10/25 12:23:24;;;;;;;164.10;53.60;;;;;;;11.18;100.00;98490.13;131217;1250;106956;-78
2023/10/25 12:26:30;;;;;;;216.70;73.80;;;;;;;11.19;100.00;98491.77;131396;1251;108444;-78
2023/10/25 12:29:36;;;;;;;432.00;162.30;;;;;;;11.15;100.00;98494.56;131341;1250;107573;-78
2023/10/25 12:32:42;;;;;;;44.40;20.60;;;;;;;11.09;100.00;98495.77;131448;1251;108657;-78
2023/10/25 12:35:49;;;;;;;347.40;117.90;;;;;;;11.09;100.00;98497.25;131369;1250;107734;-78
2023/10/25 12:38:54;;;;;;;125.50;45.20;;;;;;;11.11;100.00;98495.49;131412;1250;107749;-78
2023/10/25 12:42:00;;;;;;;417.80;147.00;;;;;;;11.07;100.00;98497.36;131375;1248;107431;-78
2023/10/25 12:45:08;;;;;;;97.50;35.10;;;;;;;11.02;100.00;98488.51;131374;1253;107346;-78
2023/10/25 12:48:13;;;;;;;46.20;18.90;;;;;;;11.05;100.00;98486.68;131444;1252;107577;-78
2023/10/25 12:51:19;;;;;;;411.50;156.10;;;;;;;11.06;100.00;98486.08;131386;1251;107465;-78
2023/10/25 12:54:25;;;;;;;92.80;36.40;;;;;;;11.11;100.00;98484.84;131417;1251;106862;-77
2023/10/25 12:57:30;;;;;;;110.40;56.50;;;;;;;11.11;100.00;98484.89;131329;1248;107688;-77
2023/10/25 13:00:36;;;;;;;54.40;34.50;;;;;;;11.12;100.00;98487.23;131427;1253;108525;-77
2023/10/25 13:03:42;;;;;;;28.70;23.00;;;;;;;11.14;100.00;98498.21;131292;1253;106620;-78
2023/10/25 13:06:48;;;;;;;14.60;12.90;;;;;;;11.09;100.00;98502.38;131458;1248;106706;-78
2023/10/25 13:09:53;;;;;;;20.60;16.40;;;;;;;11.06;100.00;98504.17;131493;1250;107749;-78
2023/10/25 13:12:59;;;;;;;14.00;10.20;;;;;;;11.04;100.00;98508.80;131402;1254;106632;-78
2023/10/25 13:16:05;;;;;;;13.80;10.80;;;;;;;11.00;100.00;98503.13;131406;1252;106756;-78
2023/10/25 13:19:11;;;;;;;11.80;9.80;;;;;;;11.02;100.00;98504.40;131387;1253;107664;-77
2023/10/25 13:22:16;;;;;;;12.10;9.20;;;;;;;11.02;100.00;98507.56;131425;1248;108599;-79
2023/10/25 13:25:22;;;;;;;13.00;9.60;;;;;;;11.04;100.00;98506.86;131423;1248;106839;-79
2023/10/25 13:28:28;;;;;;;13.40;10.20;;;;;;;11.06;100.00;98511.73;131314;1248;108337;-78
2023/10/25 13:31:35;;;;;;;13.30;10.70;;;;;;;11.07;100.00;98514.00;131358;1247;107234;-78
2023/10/25 13:34:42;;;;;;;21.30;16.30;;;;;;;11.08;100.00;98515.67;131505;1250;106543;-78
2023/10/25 13:37:48;;;;;;;20.20;16.20;;;;;;;11.10;100.00;98520.28;131440;1251;109247;-78
2023/10/25 13:40:53;;;;;;;21.30;10.30;;;;;;;11.12;100.00;98526.63;131424;1247;108563;-79
2023/10/25 13:43:59;;;;;;;13.00;10.90;;;;;;;11.09;100.00;98525.00;131425;1248;107785;-78
2023/10/25 13:47:05;;;;;;;14.30;9.90;;;;;;;11.03;100.00;98522.71;131520;1250;107636;-77
2023/10/25 13:50:11;;;;;;;13.90;10.80;;;;;;;11.00;100.00;98521.89;131580;1254;107698;-78
2023/10/25 13:53:17;;;;;;;13.40;10.50;;;;;;;11.07;100.00;98522.98;131539;1248;108432;-78
2023/10/25 13:56:34;;;;;;;14.60;11.40;;;;;;;11.10;100.00;98527.03;132043;1248;107865;-79
2023/10/25 13:59:46;;;;;;;15.20;11.20;;;;;;;11.06;100.00;98530.00;131793;1253;108666;-78
2023/10/25 14:02:53;;;;;;;14.90;11.80;;;;;;;11.03;100.00;98532.48;131828;1250;106741;-78
2023/10/25 14:06:03;;;;;;;15.70;11.70;;;;;;;11.07;100.00;98538.72;131813;1248;107741;-73